Time;durP1;ratioP1;P1;durP2;ratioP2;P2;SDS_P1;SDS_P2;PMS_P1;PMS_P2;Temp;Humidity;BMP_temperature;BMP_pressure;BME280_temperature;BME280_humidity;BME280_pressure;Samples;Min_cycle;Max_cycle;Signal;HPM_P1;HPM_P2
2023/01/20 00:04:49;;;;;;;14.50;7.47;;;2.20;99.90;;;-0.27;100.00;99314.50;10426638;28;20423;-78
2023/01/20 00:09:52;;;;;;;16.00;7.57;;;2.20;99.90;;;-0.25;100.00;99314.38;10455532;28;20050;-78
2023/01/20 00:14:55;;;;;;;14.50;7.27;;;2.20;99.90;;;-0.25;100.00;99324.81;10417560;28;20061;-78
2023/01/20 00:19:58;;;;;;;16.80;7.43;;;2.20;99.90;;;-0.23;100.00;99317.72;10422902;28;20139;-78
2023/01/20 00:25:01;;;;;;;15.80;8.10;;;2.20;99.90;;;-0.24;100.00;99321.25;10456417;28;20066;-79
2023/01/20 00:30:05;;;;;;;15.47;8.20;;;2.20;99.90;;;-0.29;100.00;99319.84;10436569;28;20065;-78
2023/01/20 00:35:09;;;;;;;15.40;7.97;;;2.10;99.90;;;-0.32;100.00;99304.41;10451318;28;20426;-78
2023/01/20 00:40:13;;;;;;;14.30;7.33;;;2.10;99.90;;;-0.37;100.00;99301.31;10438970;28;20057;-78
2023/01/20 00:45:16;;;;;;;15.07;7.43;;;2.00;99.90;;;-0.43;100.00;99321.84;10458965;28;20144;-78
2023/01/20 00:50:19;;;;;;;13.03;7.07;;;2.00;99.90;;;-0.45;100.00;99336.81;10448974;28;20062;-78
2023/01/20 00:55:22;;;;;;;16.50;7.73;;;2.00;99.90;;;-0.45;100.00;99361.13;10449202;28;20096;-78
2023/01/20 01:00:25;;;;;;;23.17;10.97;;;2.00;99.90;;;-0.41;100.00;99359.13;10452535;28;20186;-77
2023/01/20 01:05:28;;;;;;;25.00;11.20;;;2.00;99.90;;;-0.39;100.00;99345.00;10460118;28;20143;-77
2023/01/20 01:10:31;;;;;;;14.80;7.23;;;2.10;99.90;;;-0.36;100.00;99338.69;10420483;28;20062;-77
2023/01/20 01:15:35;;;;;;;11.67;6.93;;;2.10;99.90;;;-0.32;100.00;99330.50;10445276;28;20062;-76
2023/01/20 01:20:38;;;;;;;12.43;6.57;;;2.20;99.90;;;-0.28;100.00;99316.28;10480400;28;20058;-78
2023/01/20 01:25:41;;;;;;;11.43;6.20;;;2.20;99.90;;;-0.24;100.00;99300.34;10459776;28;20427;-77
2023/01/20 01:30:44;;;;;;;11.20;5.87;;;2.20;99.90;;;-0.22;100.00;99299.31;10448687;28;20072;-77
2023/01/20 01:36:00;;;;;;;15.40;7.07;;;2.30;99.90;;;-0.18;100.00;99292.03;10460830;28;20487;-77
2023/01/20 01:41:04;;;;;;;12.90;6.63;;;2.30;99.90;;;-0.19;100.00;99275.53;10456838;28;20511;-78
2023/01/20 01:46:07;;;;;;;12.67;6.93;;;2.30;99.90;;;-0.24;100.00;99267.28;10473622;28;20057;-78
2023/01/20 01:51:18;;;;;;;14.97;7.33;;;2.20;99.90;;;-0.25;100.00;99281.25;10460030;28;20514;-78
2023/01/20 01:56:22;;;;;;;11.77;6.05;;;2.20;99.90;;;-0.28;100.00;99271.06;10435901;28;20112;-78
2023/01/20 02:01:27;;;;;;;12.80;6.63;;;2.20;99.90;;;-0.26;100.00;99271.75;10476310;28;20431;-78
2023/01/20 02:06:34;;;;;;;11.27;5.90;;;2.20;99.90;;;-0.22;100.00;99274.97;10426136;28;20061;-78
2023/01/20 02:11:47;;;;;;;13.43;6.73;;;2.20;99.90;;;-0.20;100.00;99265.22;10444509;28;20063;-78
2023/01/20 02:17:13;;;;;;;12.87;6.90;;;2.20;99.90;;;-0.16;100.00;99264.03;10434644;28;20062;-79
2023/01/20 02:22:45;;;;;;;14.17;6.70;;;2.30;99.90;;;-0.13;100.00;99258.56;10419395;28;20065;-79
2023/01/20 02:28:12;;;;;;;11.93;6.10;;;2.30;99.90;;;-0.11;100.00;99254.88;10488928;28;20407;-78
2023/01/20 02:33:49;;;;;;;10.93;5.10;;;2.40;99.90;;;-0.07;100.00;99263.28;10433760;28;20062;-78
2023/01/20 02:39:03;;;;;;;10.87;4.80;;;2.40;99.90;;;-0.01;100.00;99268.03;10429663;28;20058;-78
2023/01/20 02:44:52;;;;;;;10.20;4.50;;;2.50;99.90;;;0.05;100.00;99264.91;10490666;28;20069;-78
2023/01/20 02:50:21;;;;;;;10.30;5.23;;;2.50;99.90;;;0.11;100.00;99264.41;10493523;28;20590;-78
2023/01/20 02:55:37;;;;;;;21.33;7.30;;;2.60;99.90;;;0.15;100.00;99270.22;10473916;28;20053;-78
2023/01/20 03:00:49;;;;;;;40.27;11.23;;;2.70;99.90;;;0.18;100.00;99280.41;10489268;28;20057;-78
2023/01/20 03:05:57;;;;;;;23.40;7.60;;;2.70;99.90;;;0.21;100.00;99285.41;10443881;28;20529;-78
2023/01/20 03:11:07;;;;;;;13.97;6.30;;;2.70;99.90;;;0.22;100.00;99276.63;10442087;28;20057;-78
2023/01/20 03:16:19;;;;;;;24.23;8.37;;;2.80;99.90;;;0.26;100.00;99275.41;10439715;28;20061;-78
2023/01/20 03:21:22;;;;;;;13.52;6.30;;;2.80;99.90;;;0.31;100.00;99282.91;10429007;28;20062;-78
2023/01/20 03:26:26;;;;;;;49.23;11.93;;;2.80;99.90;;;0.34;100.00;99295.69;10476708;28;20057;-78
2023/01/20 03:31:34;;;;;;;50.97;11.97;;;2.90;99.90;;;0.38;100.00;99297.13;10439384;28;20065;-78
2023/01/20 03:36:40;;;;;;;33.73;10.80;;;2.90;99.90;;;0.40;100.00;99308.25;10436935;28;20153;-78
2023/01/20 03:41:50;;;;;;;13.17;5.70;;;3.00;99.90;;;0.42;100.00;99311.56;10455290;28;20120;-78
2023/01/20 03:47:13;;;;;;;11.13;5.27;;;3.00;99.90;;;0.45;100.00;99309.56;10422938;28;20050;-79
2023/01/20 03:52:43;;;;;;;12.47;5.57;;;3.00;99.90;;;0.46;100.00;99305.97;10428333;28;20080;-78
2023/01/20 03:58:04;;;;;;;12.80;6.70;;;3.00;99.90;;;0.48;100.00;99305.84;10445132;28;20155;-78
2023/01/20 04:03:15;;;;;;;11.80;5.90;;;3.00;99.90;;;0.48;100.00;99303.22;10469174;28;20085;-78
2023/01/20 04:08:23;;;;;;;14.63;6.23;;;3.00;99.90;;;0.46;100.00;99294.69;10441587;28;20061;-78
2023/01/20 04:13:26;;;;;;;15.03;7.50;;;3.00;99.90;;;0.42;100.00;99291.53;10434294;28;20289;-78
2023/01/20 04:18:29;;;;;;;17.00;7.90;;;3.00;99.90;;;0.42;100.00;99291.53;10428286;28;20084;-78
2023/01/20 04:23:39;;;;;;;14.00;6.80;;;3.00;99.90;;;0.44;100.00;99291.38;10465307;28;20092;-78
2023/01/20 04:28:42;;;;;;;11.80;6.27;;;3.00;99.90;;;0.44;100.00;99286.16;10449770;28;20418;-78
2023/01/20 04:33:45;;;;;;;10.43;5.50;;;3.00;99.90;;;0.47;100.00;99291.13;10438208;28;20061;-78
2023/01/20 04:38:51;;;;;;;10.27;5.17;;;3.00;99.90;;;0.46;100.00;99299.91;10433670;28;20548;-78
2023/01/20 04:43:53;;;;;;;10.77;5.47;;;3.00;99.90;;;0.47;100.00;99298.97;10433873;28;20053;-78
2023/01/20 04:48:57;;;;;;;11.03;5.87;;;3.00;99.90;;;0.49;100.00;99304.91;10424216;28;20057;-78
2023/01/20 04:54:00;;;;;;;16.63;6.70;;;3.00;99.90;;;0.51;100.00;99305.59;10456918;28;20495;-78
2023/01/20 04:59:03;;;;;;;16.30;7.60;;;3.00;99.90;;;0.55;100.00;99304.41;10427889;28;20089;-78
2023/01/20 05:04:07;;;;;;;14.17;6.20;;;3.10;99.90;;;0.55;100.00;99283.50;10454147;28;20058;-77
2023/01/20 05:09:14;;;;;;;12.97;6.03;;;3.10;99.90;;;0.58;100.00;99277.16;10489590;28;20423;-78
2023/01/20 05:14:17;;;;;;;13.20;6.77;;;3.00;99.90;;;0.55;100.00;99257.34;10438029;28;20063;-78
2023/01/20 05:19:20;;;;;;;11.20;6.13;;;3.10;99.90;;;0.53;100.00;99254.84;10455997;28;20076;-78
2023/01/20 05:24:23;;;;;;;12.00;6.03;;;3.00;99.90;;;0.54;100.00;99240.00;10459605;28;20069;-78
2023/01/20 05:29:27;;;;;;;11.30;5.67;;;3.00;99.90;;;0.56;100.00;99237.28;10443950;28;20115;-78
2023/01/20 05:34:30;;;;;;;13.03;5.40;;;3.00;99.90;;;0.59;100.00;99247.44;10459402;28;20432;-78
2023/01/20 05:39:33;;;;;;;12.97;6.33;;;3.00;99.90;;;0.60;100.00;99255.19;10438370;28;20502;-78
2023/01/20 05:44:37;;;;;;;8.50;4.60;;;3.10;99.90;;;0.61;100.00;99241.16;10459778;28;20057;-81
2023/01/20 05:49:40;;;;;;;8.17;4.40;;;3.10;99.90;;;0.63;100.00;99247.06;10450807;28;20083;-80
2023/01/20 05:54:43;;;;;;;8.87;4.83;;;3.10;99.90;;;0.66;100.00;99264.28;10462254;28;20061;-81
2023/01/20 05:59:47;;;;;;;12.77;6.20;;;3.20;99.90;;;0.69;100.00;99251.78;10457322;28;20066;-77
2023/01/20 06:04:50;;;;;;;22.73;7.00;;;3.20;99.90;;;0.75;100.00;99253.06;10475379;28;20053;-77
2023/01/20 06:09:53;;;;;;;26.83;9.00;;;3.30;99.90;;;0.81;100.00;99263.00;10453113;28;20152;-77
2023/01/20 06:14:56;;;;;;;20.03;7.00;;;3.30;99.90;;;0.88;100.00;99265.94;10455499;28;20060;-77
2023/01/20 06:19:59;;;;;;;19.90;8.40;;;3.40;99.90;;;0.92;100.00;99265.56;10459917;28;20140;-77
2023/01/20 06:25:03;;;;;;;29.50;11.50;;;3.50;99.90;;;0.97;100.00;99250.31;10460609;28;20144;-77
2023/01/20 06:30:07;;;;;;;24.27;10.30;;;3.50;99.90;;;1.01;100.00;99253.47;10473544;28;20057;-77
2023/01/20 06:35:28;;;;;;;;;;;3.50;99.90;;;1.07;100.00;99252.97;10444499;28;20062;-77
2023/01/20 06:40:31;;;;;;;21.60;9.00;;;3.60;99.90;;;1.09;100.00;99258.09;10442558;28;19936;-77
2023/01/20 06:45:34;;;;;;;16.87;8.03;;;3.60;99.90;;;1.12;100.00;99270.88;10487323;28;20053;-78
2023/01/20 06:50:37;;;;;;;15.50;7.10;;;3.70;99.90;;;1.16;100.00;99273.13;10459745;28;20061;-78
2023/01/20 06:55:40;;;;;;;11.77;5.93;;;3.70;99.90;;;1.21;100.00;99275.34;10409605;28;20084;-78
2023/01/20 07:00:43;;;;;;;12.67;5.97;;;3.70;99.90;;;1.24;100.00;99283.75;10491321;28;20149;-77
2023/01/20 07:05:58;;;;;;;12.00;5.60;;;3.80;99.90;;;1.28;100.00;99286.94;10447134;28;20058;-78
2023/01/20 07:11:01;;;;;;;11.83;5.60;;;3.80;99.90;;;1.31;100.00;99287.50;10409155;28;20053;-78
2023/01/20 07:16:05;;;;;;;10.47;5.10;;;3.80;99.90;;;1.36;100.00;99296.75;10458952;28;20058;-78
2023/01/20 07:21:11;;;;;;;8.67;4.70;;;3.80;99.90;;;1.39;100.00;99293.91;10440535;28;20060;-78
2023/01/20 07:26:20;;;;;;;11.70;4.67;;;3.90;99.90;;;1.41;100.00;99302.44;10443029;28;20136;-78
2023/01/20 07:31:26;;;;;;;9.77;4.73;;;3.90;99.90;;;1.46;100.00;99319.41;10443187;28;20506;-79
2023/01/20 07:36:29;;;;;;;8.53;4.47;;;3.90;99.90;;;1.48;100.00;99316.66;10456476;28;20148;-79
2023/01/20 07:41:32;;;;;;;10.23;5.07;;;3.90;99.90;;;1.50;100.00;99310.34;10459707;28;20071;-78
2023/01/20 07:46:35;;;;;;;10.03;4.77;;;4.00;99.90;;;1.55;100.00;99310.75;10442134;28;20061;-78
2023/01/20 07:51:38;;;;;;;10.60;5.17;;;4.00;99.90;;;1.58;100.00;99307.06;10456268;28;20061;-79
2023/01/20 07:56:41;;;;;;;10.30;4.77;;;4.00;99.90;;;1.62;100.00;99313.69;10463177;28;20064;-78
2023/01/20 08:01:44;;;;;;;11.90;5.43;;;4.00;99.90;;;1.65;100.00;99320.44;10443374;28;20061;-78
2023/01/20 08:06:47;;;;;;;13.03;5.80;;;4.10;99.90;;;1.67;100.00;99318.50;10458201;28;20503;-79
2023/01/20 08:11:50;;;;;;;13.60;6.83;;;4.10;99.90;;;1.70;100.00;99339.22;10458492;28;20462;-79
2023/01/20 08:16:53;;;;;;;18.67;7.90;;;4.10;99.90;;;1.75;100.00;99343.09;10419283;28;20560;-78
2023/01/20 08:21:57;;;;;;;25.07;12.10;;;4.10;99.90;;;1.76;100.00;99339.50;10442305;28;20061;-78
2023/01/20 08:26:59;;;;;;;15.43;7.93;;;4.20;99.90;;;1.81;100.00;99328.66;10474579;28;20080;-78
2023/01/20 08:32:02;;;;;;;10.50;5.60;;;4.20;99.90;;;1.83;100.00;99335.38;10491279;28;20144;-79
2023/01/20 08:37:06;;;;;;;9.77;5.10;;;4.30;99.90;;;1.85;100.00;99333.47;10489888;28;20065;-79
2023/01/20 08:42:09;;;;;;;8.93;4.87;;;4.30;99.90;;;1.88;100.00;99346.31;10424135;28;20422;-78
2023/01/20 08:47:12;;;;;;;7.27;4.70;;;4.30;99.90;;;1.92;100.00;99343.41;10490668;28;20144;-78
2023/01/20 08:52:15;;;;;;;9.40;5.13;;;4.30;99.90;;;1.91;100.00;99329.47;10458618;28;20057;-78
2023/01/20 08:57:18;;;;;;;10.10;5.03;;;4.30;99.90;;;1.93;100.00;99340.66;10477051;28;20060;-79
2023/01/20 09:02:23;;;;;;;9.67;5.63;;;4.30;99.90;;;1.97;100.00;99338.59;10447976;28;20115;-78
2023/01/20 09:07:26;;;;;;;10.77;5.83;;;4.40;99.90;;;1.98;100.00;99341.09;10431384;28;20423;-78
2023/01/20 09:12:29;;;;;;;9.63;5.57;;;4.40;99.90;;;2.00;100.00;99346.19;10430164;28;20057;-78
2023/01/20 09:17:34;;;;;;;9.10;4.57;;;4.40;99.90;;;1.98;100.00;99348.97;10470680;28;20076;-78
2023/01/20 09:22:39;;;;;;;11.40;4.90;;;4.40;99.90;;;1.97;100.00;99346.44;10448009;28;20534;-79
2023/01/20 09:27:42;;;;;;;9.13;5.37;;;4.30;99.90;;;1.97;100.00;99349.06;10446976;28;20092;-77
2023/01/20 09:32:45;;;;;;;7.10;4.10;;;4.40;99.90;;;1.95;100.00;99328.25;10428989;28;20068;-78
2023/01/20 09:43:52;;;;;;;12.17;5.27;;;4.30;99.90;;;1.98;100.00;99301.81;10460059;28;20089;-79
2023/01/20 09:55:45;;;;;;;10.57;4.70;;;4.40;99.90;;;2.07;100.00;99285.25;10437998;28;20054;-78
2023/01/20 10:01:34;;;;;;;95.47;27.03;;;4.50;99.90;;;2.12;100.00;99284.84;10452588;28;20060;-78
2023/01/20 10:07:11;;;;;;;16.57;7.27;;;4.50;99.90;;;2.14;100.00;99272.41;10435070;28;20077;-79
2023/01/20 10:12:36;;;;;;;17.83;6.80;;;4.50;99.90;;;2.18;100.00;99250.22;10454263;28;20172;-78
2023/01/20 10:17:54;;;;;;;13.27;5.90;;;4.60;99.90;;;2.22;100.00;99217.53;10402582;28;20057;-78
2023/01/20 10:23:28;;;;;;;19.10;9.57;;;4.60;99.90;;;2.27;100.00;99204.81;10494587;28;20108;-78
2023/01/20 10:28:42;;;;;;;22.80;11.23;;;4.70;99.90;;;2.30;100.00;99199.31;10435932;28;20060;-79
2023/01/20 10:33:45;;;;;;;17.27;8.83;;;4.70;99.90;;;2.37;100.00;99202.19;10460037;28;20068;-79
2023/01/20 10:39:12;;;;;;;9.57;4.20;;;4.70;99.90;;;2.45;100.00;99206.75;10427659;28;20063;-78
2023/01/20 10:44:15;;;;;;;7.73;3.80;;;4.80;99.90;;;2.53;99.84;99201.63;10443257;28;20065;-78
2023/01/20 10:49:55;;;;;;;8.07;4.27;;;4.90;99.90;;;2.64;99.12;99206.72;10443063;28;20080;-78
2023/01/20 10:55:17;;;;;;;7.27;4.17;;;5.00;99.90;;;2.74;98.20;99220.63;10494215;28;20140;-78
2023/01/20 11:00:32;;;;;;;6.50;3.20;;;5.10;99.90;;;2.83;97.63;99219.78;10420386;28;20086;-78
2023/01/20 11:05:37;;;;;;;8.23;3.30;;;5.20;99.90;;;2.92;97.33;99232.03;10404727;28;20068;-78
2023/01/20 11:10:40;;;;;;;6.40;2.77;;;5.40;99.90;;;3.01;97.11;99237.41;10441737;28;20084;-78
2023/01/20 11:15:48;;;;;;;5.77;3.13;;;5.50;99.90;;;3.02;96.55;99236.44;10442646;28;20065;-78
2023/01/20 11:20:55;;;;;;;7.50;3.37;;;5.50;99.90;;;3.02;96.00;99241.69;10443220;28;20132;-79
2023/01/20 11:26:17;;;;;;;7.50;3.43;;;5.50;99.90;;;2.94;95.60;99231.91;10471177;28;20434;-78
2023/01/20 11:31:39;;;;;;;6.33;3.40;;;5.40;99.90;;;2.82;94.71;99222.53;10443851;28;20092;-78
2023/01/20 11:36:42;;;;;;;7.95;4.53;;;5.30;99.90;;;2.69;94.39;99207.94;10442795;28;20549;-79
2023/01/20 11:41:47;;;;;;;7.93;4.17;;;5.10;99.90;;;2.59;94.01;99195.81;10441870;28;20061;-79
2023/01/20 11:46:50;;;;;;;9.43;4.00;;;5.00;99.90;;;2.50;94.13;99189.63;10458702;28;20057;-79
2023/01/20 11:51:56;;;;;;;9.63;4.40;;;4.90;99.90;;;2.41;94.20;99180.81;10474301;28;20065;-79
2023/01/20 11:57:04;;;;;;;9.30;4.80;;;4.80;99.90;;;2.39;94.39;99190.59;10441083;28;20065;-78
2023/01/20 12:02:07;;;;;;;10.30;5.30;;;4.70;99.90;;;2.36;94.41;99190.06;10493129;28;20149;-78
2023/01/20 12:07:40;;;;;;;12.33;4.80;;;4.70;99.90;;;2.35;94.39;99178.75;10456143;28;20065;-78
2023/01/20 12:13:10;;;;;;;10.17;4.83;;;4.70;99.90;;;2.31;94.53;99180.00;10488358;28;20435;-78
2023/01/20 12:18:35;;;;;;;9.40;4.37;;;4.70;99.90;;;2.30;94.86;99175.72;10458900;28;20088;-78
2023/01/20 12:23:54;;;;;;;9.33;4.60;;;4.70;99.90;;;2.27;95.10;99183.84;10474097;28;20507;-78
2023/01/20 12:29:09;;;;;;;13.27;6.47;;;4.70;99.90;;;2.21;95.24;99200.13;10456828;28;20085;-78
2023/01/20 12:34:16;;;;;;;13.83;5.97;;;4.60;99.90;;;2.13;95.48;99194.75;10460236;28;20069;-79
2023/01/20 12:40:03;;;;;;;10.97;5.80;;;4.50;99.90;;;2.07;95.86;99190.91;10449268;28;20081;-78
2023/01/20 12:45:40;;;;;;;17.77;7.10;;;4.50;99.90;;;2.03;96.39;99183.44;10450669;28;20132;-78
2023/01/20 12:51:24;;;;;;;13.83;6.53;;;4.40;99.90;;;1.98;96.90;99198.75;10448550;28;20065;-77
2023/01/20 12:56:58;;;;;;;83.67;25.77;;;4.30;99.90;;;1.94;97.17;99184.28;10479667;28;20061;-78
2023/01/20 13:02:20;;;;;;;16.50;6.90;;;4.30;99.90;;;1.91;97.64;99195.84;10431430;28;20167;-78
2023/01/20 13:07:45;;;;;;;13.10;6.25;;;4.30;99.90;;;1.87;97.74;99192.69;10448781;28;20058;-78
2023/01/20 13:13:44;;;;;;;14.50;6.63;;;4.30;99.90;;;1.88;98.33;99212.69;10481911;28;20060;-78
2023/01/20 13:19:18;;;;;;;11.30;5.50;;;4.30;99.90;;;1.85;98.82;99210.31;10490151;28;20069;-81
2023/01/20 13:24:28;;;;;;;11.48;5.75;;;4.20;99.90;;;1.82;99.42;99208.00;10448551;28;20062;-79
2023/01/20 13:30:05;;;;;;;14.30;7.03;;;4.20;99.90;;;1.81;100.00;99213.38;10464826;28;20072;-79
2023/01/20 13:35:23;;;;;;;14.47;7.17;;;4.20;99.90;;;1.71;100.00;99218.59;10452408;28;20115;-79
2023/01/20 13:40:36;;;;;;;15.47;9.00;;;4.10;99.90;;;1.48;100.00;99218.00;10464617;28;20064;-80
2023/01/20 13:45:39;;;;;;;17.03;8.97;;;3.90;99.90;;;1.27;100.00;99217.25;10451670;28;20054;-80
2023/01/20 13:50:45;;;;;;;18.07;9.57;;;3.70;99.90;;;0.98;100.00;99219.75;10426992;28;20057;-81
2023/01/20 13:55:55;;;;;;;17.77;8.97;;;3.40;99.90;;;0.76;100.00;99216.31;10462652;28;20085;-82
2023/01/20 14:01:03;;;;;;;21.27;9.90;;;3.20;99.90;;;0.61;100.00;99220.25;10472703;28;20056;-82
2023/01/20 14:06:12;;;;;;;49.10;18.37;;;3.00;99.90;;;0.51;100.00;99219.34;10433150;28;20153;-82
2023/01/20 14:11:22;;;;;;;30.47;13.80;;;2.90;99.90;;;0.42;100.00;99215.72;10436821;28;20120;-82
2023/01/20 14:16:35;;;;;;;20.47;10.23;;;2.80;99.90;;;0.39;100.00;99228.19;10444987;28;20060;-82
2023/01/20 14:21:40;;;;;;;136.70;36.33;;;2.80;99.90;;;0.35;100.00;99221.56;10444938;28;20111;-82
2023/01/20 14:26:43;;;;;;;20.67;10.83;;;2.70;99.90;;;0.33;100.00;99234.75;10445279;28;20057;-83
2023/01/20 14:31:46;;;;;;;22.93;11.10;;;2.70;99.90;;;0.32;100.00;99229.66;10445277;28;20092;-82
2023/01/20 14:36:51;;;;;;;20.17;9.57;;;2.70;99.90;;;0.32;100.00;99237.50;10428194;28;20057;-83
2023/01/20 14:42:00;;;;;;;20.40;9.13;;;2.70;99.90;;;0.35;100.00;99235.44;10452767;28;20088;-82
2023/01/20 14:47:03;;;;;;;111.20;51.13;;;2.70;99.90;;;0.34;100.00;99233.81;10429132;28;20089;-82
2023/01/20 14:52:20;;;;;;;20.40;10.10;;;2.70;99.90;;;0.35;100.00;99240.69;10459365;28;20433;-82
2023/01/20 14:57:25;;;;;;;15.10;7.60;;;2.70;99.90;;;0.36;100.00;99244.13;10438602;28;20057;-82
2023/01/20 15:02:34;;;;;;;14.80;7.60;;;2.70;99.90;;;0.32;100.00;99240.13;10444233;28;20061;-83
2023/01/20 15:07:37;;;;;;;13.97;7.17;;;2.70;99.90;;;0.34;100.00;99251.28;10422377;28;20061;-82
2023/01/20 15:12:46;;;;;;;15.57;7.60;;;2.70;99.90;;;0.33;100.00;99245.22;10442065;28;20433;-82
2023/01/20 15:18:26;;;;;;;13.27;6.60;;;2.70;99.90;;;0.29;100.00;99258.66;10452807;28;20142;-82
2023/01/20 15:23:42;;;;;;;10.67;5.73;;;2.70;99.90;;;0.24;100.00;99253.78;10427250;28;20144;-83
2023/01/20 15:28:45;;;;;;;11.97;5.70;;;2.60;99.90;;;0.22;100.00;99263.56;10474801;28;20072;-83
2023/01/20 15:33:48;;;;;;;11.43;5.43;;;2.60;99.90;;;0.20;100.00;99271.53;10470716;28;20057;-82
2023/01/20 15:38:52;;;;;;;8.83;4.27;;;2.50;99.90;;;0.16;100.00;99270.09;10442112;28;20146;-83
2023/01/20 15:43:55;;;;;;;7.57;4.13;;;2.50;99.90;;;0.14;100.00;99265.97;10458573;28;20058;-83
2023/01/20 15:48:58;;;;;;;7.50;3.87;;;2.50;99.90;;;0.11;100.00;99266.19;10448204;28;20422;-82
2023/01/20 15:54:01;;;;;;;8.97;4.87;;;2.40;99.90;;;0.06;100.00;99277.03;10447949;28;20064;-83
2023/01/20 15:59:17;;;;;;;9.73;4.57;;;2.40;99.90;;;0.01;100.00;99273.16;10447462;28;20096;-82
2023/01/20 16:04:20;;;;;;;10.27;5.77;;;2.30;99.90;;;-0.04;100.00;99265.66;10491398;28;20491;-83
2023/01/20 16:09:29;;;;;;;9.63;5.17;;;2.30;99.90;;;-0.10;100.00;99272.22;10447989;28;20431;-82
2023/01/20 16:14:32;;;;;;;10.07;4.93;;;2.20;99.90;;;-0.13;100.00;99271.63;10435565;28;20068;-82
2023/01/20 16:19:35;;;;;;;9.83;6.07;;;2.20;99.90;;;-0.17;100.00;99293.72;10456871;28;20080;-82
2023/01/20 16:24:38;;;;;;;16.17;7.83;;;2.20;99.90;;;-0.20;100.00;99284.34;10418376;28;20467;-81
2023/01/20 16:29:42;;;;;;;21.13;9.40;;;2.20;99.90;;;-0.25;100.00;99288.25;10434354;28;20065;-82
2023/01/20 16:34:45;;;;;;;18.23;9.73;;;2.10;99.90;;;-0.35;100.00;99273.34;10438238;28;20057;-82
2023/01/20 16:39:48;;;;;;;22.50;11.07;;;2.00;99.90;;;-0.41;100.00;99283.44;10408928;28;20053;-82
2023/01/20 16:44:51;;;;;;;19.67;9.17;;;2.00;99.90;;;-0.45;100.00;99287.22;10451514;28;20058;-82
2023/01/20 16:49:54;;;;;;;13.67;7.57;;;1.90;99.90;;;-0.50;100.00;99276.31;10449297;28;20418;-82
2023/01/20 16:54:58;;;;;;;16.67;8.47;;;1.90;99.90;;;-0.51;100.00;99280.69;10450831;28;20112;-82
2023/01/20 17:00:06;;;;;;;13.60;7.37;;;1.90;99.90;;;-0.54;100.00;99299.19;10452625;28;20107;-82
2023/01/20 17:05:09;;;;;;;16.03;8.13;;;1.80;99.90;;;-0.56;100.00;99293.28;10431932;28;20057;-82
2023/01/20 17:10:12;;;;;;;15.37;8.53;;;1.80;99.90;;;-0.58;100.00;99309.06;10457999;28;20137;-82
2023/01/20 17:15:15;;;;;;;13.53;6.83;;;1.80;99.90;;;-0.56;100.00;99298.50;10415204;28;20093;-82
2023/01/20 17:20:18;;;;;;;11.90;5.60;;;1.80;99.90;;;-0.57;100.00;99283.78;10429844;28;20062;-81
2023/01/20 17:25:21;;;;;;;11.27;5.47;;;1.80;99.90;;;-0.60;100.00;99295.31;10462364;28;20053;-82
2023/01/20 17:30:24;;;;;;;9.17;5.00;;;1.80;99.90;;;-0.62;100.00;99299.81;10430253;28;20065;-81
2023/01/20 17:35:28;;;;;;;7.23;3.57;;;1.80;99.90;;;-0.61;100.00;99298.84;10442400;28;20058;-81
2023/01/20 17:40:31;;;;;;;9.10;4.10;;;1.80;99.90;;;-0.58;100.00;99289.97;10442217;28;20503;-82
2023/01/20 17:45:34;;;;;;;10.47;4.33;;;1.80;99.90;;;-0.60;100.00;99289.22;10455932;28;20573;-82
2023/01/20 17:50:37;;;;;;;5.70;3.40;;;1.80;99.90;;;-0.60;100.00;99295.31;10446096;28;20061;-82
2023/01/20 17:55:40;;;;;;;9.33;3.93;;;1.70;99.90;;;-0.60;100.00;99297.06;10419856;28;20053;-82
2023/01/20 18:00:44;;;;;;;5.53;3.20;;;1.80;99.90;;;-0.60;100.00;99289.22;10451083;28;20491;-83
2023/01/20 18:05:52;;;;;;;6.13;3.37;;;1.70;99.90;;;-0.61;100.00;99283.19;10439914;28;20060;-83
2023/01/20 18:11:00;;;;;;;5.87;2.80;;;1.70;99.90;;;-0.61;100.00;99291.00;10435904;28;20440;-82
2023/01/20 18:16:10;;;;;;;5.47;2.70;;;1.80;99.90;;;-0.57;100.00;99295.06;10418051;28;20527;-81
2023/01/20 18:21:14;;;;;;;5.23;2.70;;;1.80;99.90;;;-0.53;100.00;99298.28;10456220;28;20061;-81
2023/01/20 18:26:21;;;;;;;5.43;2.83;;;1.80;99.90;;;-0.51;100.00;99292.94;10427869;28;20057;-82
2023/01/20 18:31:25;;;;;;;4.33;2.60;;;1.80;99.90;;;-0.47;100.00;99279.53;10423646;28;20144;-81
2023/01/20 18:36:33;;;;;;;6.10;2.77;;;1.90;99.90;;;-0.44;100.00;99254.94;10484925;28;20148;-81
2023/01/20 18:41:36;;;;;;;5.47;3.03;;;1.90;99.90;;;-0.38;100.00;99250.06;10425614;28;20068;-81
2023/01/20 18:46:40;;;;;;;5.77;2.70;;;2.00;99.90;;;-0.33;100.00;99247.94;10440477;28;20058;-82
2023/01/20 18:51:43;;;;;;;7.47;3.60;;;2.00;99.90;;;-0.28;100.00;99252.78;10473166;28;20061;-82
2023/01/20 18:56:47;;;;;;;5.70;3.20;;;2.10;99.90;;;-0.23;100.00;99255.03;10453243;28;20089;-83
2023/01/20 19:01:50;;;;;;;7.90;4.00;;;2.10;99.90;;;-0.18;100.00;99264.19;10433690;28;20059;-83
2023/01/20 19:06:53;;;;;;;6.53;3.27;;;2.20;99.90;;;-0.13;100.00;99261.16;10428660;28;20128;-82
2023/01/20 19:11:56;;;;;;;9.73;4.40;;;2.30;99.90;;;-0.17;100.00;99254.56;10458610;28;20065;-83
2023/01/20 19:16:59;;;;;;;10.00;4.80;;;2.20;99.90;;;-0.18;100.00;99248.50;10451324;28;20056;-83
2023/01/20 19:22:03;;;;;;;11.97;5.13;;;2.20;99.90;;;-0.18;100.00;99264.19;10471746;28;20064;-83
2023/01/20 19:27:06;;;;;;;9.80;5.07;;;2.20;99.90;;;-0.19;100.00;99272.09;10465408;28;20066;-82
2023/01/20 19:32:10;;;;;;;12.30;5.87;;;2.20;99.90;;;-0.19;100.00;99291.22;10439184;28;20065;-82
2023/01/20 19:37:13;;;;;;;13.07;5.90;;;2.20;99.90;;;-0.17;100.00;99296.34;10442763;28;20096;-83
2023/01/20 19:42:16;;;;;;;12.97;5.50;;;2.20;99.90;;;-0.15;100.00;99310.09;10426447;28;20062;-82
2023/01/20 19:47:19;;;;;;;10.83;5.33;;;2.20;99.90;;;-0.16;100.00;99311.03;10408212;28;20538;-83
2023/01/20 19:52:22;;;;;;;13.47;6.47;;;2.30;99.90;;;-0.14;100.00;99296.06;10436092;28;20070;-82
2023/01/20 19:57:26;;;;;;;9.70;5.57;;;2.30;99.90;;;-0.06;100.00;99309.34;10441995;28;20061;-83
2023/01/20 20:02:30;;;;;;;11.53;5.63;;;2.40;99.90;;;-0.08;100.00;99306.84;10461079;28;20061;-83
2023/01/20 20:07:37;;;;;;;16.43;7.13;;;2.40;99.90;;;-0.10;100.00;99298.31;10455536;28;20057;-83
2023/01/20 20:12:39;;;;;;;14.87;6.73;;;2.40;99.90;;;-0.11;100.00;99303.69;10459935;28;20565;-83
2023/01/20 20:17:42;;;;;;;14.33;7.30;;;2.30;99.90;;;-0.15;100.00;99310.91;10413619;28;20061;-87
2023/01/20 20:22:45;;;;;;;13.90;6.73;;;2.30;99.90;;;-0.12;100.00;99317.66;10438318;28;20100;-84
2023/01/20 20:27:49;;;;;;;15.53;7.50;;;2.30;99.90;;;-0.15;100.00;99315.31;10468161;28;20057;-83
2023/01/20 20:32:52;;;;;;;23.33;9.30;;;2.30;99.90;;;-0.18;100.00;99311.19;10484855;28;20434;-84
2023/01/20 20:37:55;;;;;;;19.00;8.37;;;2.20;99.90;;;-0.16;100.00;99330.16;10426751;28;20068;-83
2023/01/20 20:42:58;;;;;;;18.10;8.13;;;2.20;99.90;;;-0.18;100.00;99328.59;10451167;28;20147;-83
2023/01/20 20:48:01;;;;;;;18.03;7.57;;;2.20;99.90;;;-0.19;100.00;99326.94;10441359;28;20080;-83
2023/01/20 20:53:04;;;;;;;19.33;7.97;;;2.30;99.90;;;-0.15;100.00;99344.88;10428647;28;20499;-83
2023/01/20 20:58:11;;;;;;;15.90;7.53;;;2.30;99.90;;;-0.16;100.00;99351.03;10442830;28;20588;-83
2023/01/20 21:03:14;;;;;;;20.80;9.27;;;2.30;99.90;;;-0.15;100.00;99354.47;10442444;28;20061;-83
2023/01/20 21:08:18;;;;;;;15.17;7.67;;;2.30;99.90;;;-0.17;100.00;99357.22;10445877;28;20554;-83
2023/01/20 21:13:21;;;;;;;22.07;9.37;;;2.30;99.90;;;-0.19;100.00;99363.50;10460260;28;20062;-82
2023/01/20 21:18:24;;;;;;;17.53;8.73;;;2.20;99.90;;;-0.23;100.00;99356.88;10479799;28;20061;-82
2023/01/20 21:23:29;;;;;;;17.50;8.43;;;2.20;99.90;;;-0.20;100.00;99367.06;10447046;28;20511;-83
2023/01/20 21:28:34;;;;;;;22.83;9.33;;;2.20;99.90;;;-0.20;100.00;99373.13;10404672;28;20069;-82
2023/01/20 21:33:39;;;;;;;23.63;9.00;;;2.20;99.90;;;-0.21;100.00;99370.63;10426734;28;20069;-83
2023/01/20 21:38:44;;;;;;;19.20;8.37;;;2.20;99.90;;;-0.21;100.00;99373.25;10456650;28;20155;-82